Time,TemperatureF,DewpointF,PressureIn,WindDirection,WindDirectionDegrees,WindSpeedMPH,WindSpeedGustMPH,Humidity,HourlyPrecipIn,Conditions,Clouds,dailyrainin,SoftwareType,DateUTC
2013-05-06 00:02:00,41.0,29.0,-100.00,North,359,3.0,5.0,62,0.00,,,-99.99,,2013-05-06 06:02:00,
2013-05-06 00:12:00,41.0,30.0,-100.00,North,7,4.0,6.0,63,0.00,,,-99.99,,2013-05-06 06:12:00,
2013-05-06 00:21:00,38.0,30.0,-100.00,NE,34,4.0,6.0,71,0.00,,,-99.99,,2013-05-06 06:21:00,
2013-05-06 00:31:00,40.0,29.0,-100.00,NNE,28,4.0,7.0,66,0.00,,,-99.99,,2013-05-06 06:31:00,
2013-05-06 00:41:00,38.0,29.0,-100.00,East,83,2.0,4.0,69,0.00,,,-99.99,,2013-05-06 06:41:00,
2013-05-06 00:52:00,35.0,29.0,-100.00,SE,124,2.0,4.0,76,0.00,,,-99.99,,2013-05-06 06:52:00,
2013-05-06 01:01:00,36.0,29.0,-100.00,ENE,75,1.0,3.0,76,0.00,,,-99.99,,2013-05-06 07:01:00,
2013-05-06 01:11:00,36.0,29.0,-100.00,East,96,1.0,3.0,75,0.00,,,-99.99,,2013-05-06 07:11:00,
2013-05-06 01:22:00,36.0,28.0,-100.00,East,88,4.0,6.0,72,0.00,,,-99.99,,2013-05-06 07:22:00,
2013-05-06 01:31:00,37.0,28.0,-100.00,East,83,2.0,7.0,70,0.00,,,-99.99,,2013-05-06 07:31:00,
2013-05-06 01:52:00,36.0,28.0,-100.00,ENE,78,4.0,6.0,73,0.00,,,-99.99,,2013-05-06 07:52:00,
2013-05-06 02:01:00,36.0,28.0,-100.00,ESE,106,4.0,7.0,72,0.00,,,-99.99,,2013-05-06 08:01:00,
2013-05-06 02:12:00,36.0,28.0,-100.00,ESE,112,3.0,6.0,72,0.00,,,-99.99,,2013-05-06 08:12:00,
2013-05-06 02:22:00,36.0,27.0,-100.00,ESE,117,3.0,7.0,72,0.00,,,-99.99,,2013-05-06 08:22:00,
2013-05-06 02:31:00,36.0,27.0,-100.00,ESE,112,2.0,4.0,70,0.00,,,-99.99,,2013-05-06 08:31:00,
2013-05-06 02:41:00,35.0,27.0,-100.00,East,89,5.0,9.0,72,0.00,,,-99.99,,2013-05-06 08:41:00,
2013-05-06 02:52:00,36.0,27.0,-100.00,East,89,6.0,9.0,70,0.00,,,-99.99,,2013-05-06 08:52:00,
2013-05-06 03:01:00,36.0,27.0,-100.00,East,89,3.0,7.0,69,0.00,,,-99.99,,2013-05-06 09:01:00,
2013-05-06 03:11:00,36.0,27.0,-100.00,East,100,4.0,7.0,70,0.00,,,-99.99,,2013-05-06 09:11:00,
2013-05-06 03:22:00,35.0,27.0,-100.00,East,85,4.0,6.0,73,0.00,,,-99.99,,2013-05-06 09:22:00,
2013-05-06 03:32:00,35.0,27.0,-100.00,ENE,73,4.0,6.0,72,0.00,,,-99.99,,2013-05-06 09:32:00,
2013-05-06 03:42:00,34.0,27.0,-100.00,East,97,2.0,7.0,73,0.00,,,-99.99,,2013-05-06 09:42:00,
2013-05-06 03:53:00,34.0,27.0,-100.00,East,85,6.0,7.0,75,0.00,,,-99.99,,2013-05-06 09:53:00,
2013-05-06 04:02:00,34.0,27.0,-100.00,East,88,4.0,7.0,75,0.00,,,-99.99,,2013-05-06 10:02:00,
2013-05-06 04:12:00,34.0,27.0,-100.00,East,90,4.0,7.0,75,0.00,,,-99.99,,2013-05-06 10:12:00,
2013-05-06 04:22:00,33.0,26.0,-100.00,ESE,119,4.0,7.0,76,0.00,,,-99.99,,2013-05-06 10:22:00,
2013-05-06 04:32:00,34.0,27.0,-100.00,ESE,117,2.0,5.0,77,0.00,,,-99.99,,2013-05-06 10:32:00,
2013-05-06 04:41:00,35.0,27.0,-100.00,East,86,2.0,6.0,73,0.00,,,-99.99,,2013-05-06 10:41:00,
2013-05-06 04:52:00,35.0,27.0,-100.00,ENE,58,2.0,6.0,74,0.00,,,-99.99,,2013-05-06 10:52:00,
2013-05-06 05:02:00,34.0,27.0,-100.00,NE,47,1.0,3.0,76,0.00,,,-99.99,,2013-05-06 11:02:00,
2013-05-06 05:12:00,-999.0,-99.9,-100.00,ENE,66,2.0,6.0,-999,-99.99,,,-99.99,,2013-05-06 11:12:00,
2013-05-06 05:22:00,34.0,27.0,-100.00,East,86,1.0,2.0,75,0.00,,,-99.99,,2013-05-06 11:22:00,
2013-05-06 05:31:00,33.0,27.0,-100.00,SE,126,0.0,2.0,76,0.00,,,-99.99,,2013-05-06 11:31:00,
2013-05-06 05:42:00,33.0,27.0,-100.00,SE,124,1.0,2.0,78,0.00,,,-99.99,,2013-05-06 11:42:00,
2013-05-06 05:52:00,33.0,27.0,-100.00,East,90,4.0,6.0,77,0.00,,,-99.99,,2013-05-06 11:52:00,
2013-05-06 06:01:00,34.0,27.0,-100.00,ENE,73,4.0,6.0,75,0.00,,,-99.99,,2013-05-06 12:01:00,
2013-05-06 06:12:00,33.0,27.0,-100.00,East,92,5.0,7.0,77,0.00,,,-99.99,,2013-05-06 12:12:00,
2013-05-06 06:21:00,34.0,27.0,-100.00,ESE,103,3.0,6.0,75,0.00,,,-99.99,,2013-05-06 12:21:00,
2013-05-06 06:32:00,34.0,27.0,-100.00,ESE,102,3.0,6.0,75,0.00,,,-99.99,,2013-05-06 12:32:00,
2013-05-06 06:41:00,34.0,27.0,-100.00,East,96,4.0,6.0,75,0.00,,,-99.99,,2013-05-06 12:41:00,
2013-05-06 06:51:00,36.0,27.0,-100.00,ENE,69,2.0,6.0,70,0.00,,,-99.99,,2013-05-06 12:51:00,
2013-05-06 07:01:00,37.0,28.0,-100.00,NE,52,3.0,6.0,69,0.00,,,-99.99,,2013-05-06 13:01:00,
2013-05-06 07:11:00,38.0,28.0,-100.00,ENE,78,1.0,4.0,68,0.00,,,-99.99,,2013-05-06 13:11:00,
2013-05-06 07:21:00,40.0,29.0,-100.00,ENE,68,1.0,4.0,66,0.00,,,-99.99,,2013-05-06 13:21:00,
2013-05-06 07:32:00,42.0,30.0,-100.00,NNE,27,1.0,2.0,62,0.00,,,-99.99,,2013-05-06 13:32:00,
2013-05-06 07:42:00,40.0,31.0,-100.00,North,352,2.0,6.0,70,0.00,,,-99.99,,2013-05-06 13:42:00,
2013-05-06 07:52:00,40.0,31.0,-100.00,North,3,5.0,7.0,70,0.00,,,-99.99,,2013-05-06 13:52:00,
2013-05-06 08:01:00,42.0,32.0,-100.00,North,4,5.0,7.0,68,0.00,,,-99.99,,2013-05-06 14:01:00,
2013-05-06 08:11:00,42.0,32.0,-100.00,North,353,4.0,7.0,67,0.00,,,-99.99,,2013-05-06 14:11:00,
2013-05-06 08:21:00,43.0,33.0,-100.00,North,0,4.0,6.0,66,0.00,,,-99.99,,2013-05-06 14:21:00,
2013-05-06 08:32:00,44.0,32.0,-100.00,North,350,4.0,6.0,63,0.00,,,-99.99,,2013-05-06 14:32:00,
2013-05-06 08:42:00,45.0,33.0,-100.00,NNW,329,2.0,6.0,62,0.00,,,-99.99,,2013-05-06 14:42:00,
2013-05-06 08:51:00,47.0,34.0,-100.00,NW,325,3.0,7.0,59,0.00,,,-99.99,,2013-05-06 14:51:00,
2013-05-06 09:01:00,47.0,33.0,-100.00,NNW,329,4.0,6.0,59,0.00,,,-99.99,,2013-05-06 15:01:00,
2013-05-06 09:11:00,48.0,33.0,-100.00,NW,315,3.0,6.0,57,0.00,,,-99.99,,2013-05-06 15:11:00,
2013-05-06 09:21:00,50.0,33.0,-100.00,WNW,291,4.0,7.0,53,0.00,,,-99.99,,2013-05-06 15:21:00,
2013-05-06 09:33:00,50.0,34.0,-100.00,WNW,302,4.0,8.0,53,0.00,,,-99.99,,2013-05-06 15:33:00,
2013-05-06 09:42:00,49.0,32.0,-100.00,NW,306,4.0,8.0,51,0.00,,,-99.99,,2013-05-06 15:42:00,
2013-05-06 09:53:00,50.0,31.0,-100.00,North,11,3.0,7.0,49,0.00,,,-99.99,,2013-05-06 15:53:00,
2013-05-06 10:03:00,51.0,32.0,-100.00,NNW,346,3.0,7.0,49,0.00,,,-99.99,,2013-05-06 16:03:00,
2013-05-06 10:13:00,50.0,33.0,-100.00,North,352,3.0,6.0,51,0.00,,,-99.99,,2013-05-06 16:13:00,
2013-05-06 10:23:00,53.0,31.0,-100.00,WNW,302,3.0,7.0,43,0.00,,,-99.99,,2013-05-06 16:23:00,
2013-05-06 10:32:00,53.0,31.0,-100.00,NNW,340,3.0,9.0,42,0.00,,,-99.99,,2013-05-06 16:32:00,
2013-05-06 10:41:00,54.0,31.0,-100.00,NNW,329,4.0,9.0,41,0.00,,,-99.99,,2013-05-06 16:41:00,
2013-05-06 10:52:00,54.0,30.0,-100.00,NW,319,4.0,12.0,41,0.00,,,-99.99,,2013-05-06 16:52:00,
2013-05-06 11:02:00,54.0,30.0,-100.00,WNW,292,4.0,8.0,40,0.00,,,-99.99,,2013-05-06 17:02:00,
2013-05-06 11:12:00,55.0,30.0,-100.00,WNW,291,5.0,7.0,39,0.00,,,-99.99,,2013-05-06 17:12:00,
2013-05-06 11:23:00,55.0,30.0,-100.00,North,0,2.0,7.0,37,0.00,,,-99.99,,2013-05-06 17:23:00,
2013-05-06 11:31:00,55.0,28.0,-100.00,NW,312,6.0,11.0,35,0.00,,,-99.99,,2013-05-06 17:31:00,
2013-05-06 11:42:00,55.0,29.0,-100.00,NNW,336,2.0,11.0,36,0.00,,,-99.99,,2013-05-06 17:42:00,
2013-05-06 11:52:00,55.0,27.0,-100.00,WNW,288,4.0,9.0,34,0.00,,,-99.99,,2013-05-06 17:52:00,
2013-05-06 12:01:00,56.0,28.0,-100.00,North,3,2.0,7.0,34,0.00,,,-99.99,,2013-05-06 18:01:00,
2013-05-06 12:12:00,56.0,30.0,-100.00,NNE,17,2.0,9.0,37,0.00,,,-99.99,,2013-05-06 18:12:00,
2013-05-06 12:21:00,56.0,29.0,-100.00,NW,313,6.0,14.0,35,0.00,,,-99.99,,2013-05-06 18:21:00,
2013-05-06 12:31:00,54.0,28.0,-100.00,West,275,6.0,11.0,36,0.00,,,-99.99,,2013-05-06 18:31:00,
2013-05-06 12:43:00,54.0,28.0,-100.00,WNW,284,4.0,10.0,37,0.00,,,-99.99,,2013-05-06 18:43:00,
2013-05-06 12:52:00,54.0,28.0,-100.00,North,0,7.0,12.0,37,0.00,,,-99.99,,2013-05-06 18:52:00,
2013-05-06 13:01:00,55.0,28.0,-100.00,NNW,329,4.0,9.0,35,0.00,,,-99.99,,2013-05-06 19:01:00,
2013-05-06 13:11:00,53.0,27.0,-100.00,North,1,7.0,12.0,36,0.00,,,-99.99,,2013-05-06 19:11:00,
2013-05-06 13:22:00,53.0,29.0,-100.00,NE,35,9.0,16.0,39,0.00,,,-99.99,,2013-05-06 19:22:00,
2013-05-06 13:32:00,53.0,30.0,-100.00,NE,35,9.0,17.0,40,0.00,,,-99.99,,2013-05-06 19:32:00,
2013-05-06 13:41:00,51.0,30.0,-100.00,ENE,59,12.0,21.0,45,0.00,,,-99.99,,2013-05-06 19:41:00,
2013-05-06 13:52:00,51.0,29.0,-100.00,East,82,14.0,19.0,41,0.00,,,-99.99,,2013-05-06 19:52:00,
2013-05-06 14:01:00,52.0,28.0,-100.00,East,86,14.0,19.0,39,0.00,,,-99.99,,2013-05-06 20:01:00,
2013-05-06 14:11:00,52.0,28.0,-100.00,East,89,12.0,16.0,39,0.00,,,-99.99,,2013-05-06 20:11:00,
2013-05-06 14:21:00,52.0,27.0,-100.00,ESE,102,11.0,15.0,37,0.00,,,-99.99,,2013-05-06 20:21:00,
2013-05-06 14:32:00,52.0,27.0,-100.00,ESE,121,10.0,16.0,37,0.00,,,-99.99,,2013-05-06 20:32:00,
2013-05-06 14:42:00,53.0,27.0,-100.00,ESE,120,9.0,14.0,37,0.00,,,-99.99,,2013-05-06 20:42:00,
2013-05-06 14:52:00,53.0,27.0,-100.00,SE,136,11.0,15.0,37,0.00,,,-99.99,,2013-05-06 20:52:00,
2013-05-06 15:01:00,53.0,26.0,-100.00,SE,145,9.0,14.0,35,0.00,,,-99.99,,2013-05-06 21:01:00,
2013-05-06 15:11:00,54.0,26.0,-100.00,SE,143,9.0,14.0,34,0.00,,,-99.99,,2013-05-06 21:11:00,
2013-05-06 15:21:00,54.0,25.0,-100.00,SSE,154,5.0,11.0,32,0.00,,,-99.99,,2013-05-06 21:21:00,
2013-05-06 15:32:00,56.0,26.0,-100.00,SSE,151,4.0,7.0,32,0.00,,,-99.99,,2013-05-06 21:32:00,
2013-05-06 15:42:00,57.0,28.0,-100.00,ENE,61,5.0,14.0,34,-99.99,,,-99.99,,2013-05-06 21:42:00,
2013-05-06 15:53:00,56.0,29.0,-100.00,NW,311,11.0,16.0,34,0.00,,,-99.99,,2013-05-06 21:53:00,
2013-05-06 16:03:00,52.0,32.0,-100.00,North,357,13.0,19.0,45,0.00,,,-99.99,,2013-05-06 22:03:00,
2013-05-06 16:12:00,52.0,31.0,-100.00,North,7,13.0,19.0,44,0.00,,,-99.99,,2013-05-06 22:12:00,
2013-05-06 16:22:00,52.0,33.0,-100.00,North,11,16.0,24.0,47,0.00,,,-99.99,,2013-05-06 22:22:00,
2013-05-06 16:33:00,52.0,33.0,-100.00,North,11,15.0,23.0,48,0.00,,,-99.99,,2013-05-06 22:33:00,
2013-05-06 16:45:00,51.0,33.0,-100.00,NNE,13,14.0,22.0,50,0.00,,,-99.99,,2013-05-06 22:45:00,
2013-05-06 16:52:00,51.0,33.0,-100.00,NNE,18,13.0,20.0,49,0.00,,,-99.99,,2013-05-06 22:52:00,
2013-05-06 17:02:00,51.0,33.0,-100.00,NNE,18,14.0,22.0,49,0.00,,,-99.99,,2013-05-06 23:02:00,
2013-05-06 17:12:00,52.0,33.0,-100.00,NNE,20,12.0,18.0,49,0.00,,,-99.99,,2013-05-06 23:12:00,
2013-05-06 17:22:00,52.0,32.0,-100.00,NNE,28,9.0,16.0,47,0.00,,,-99.99,,2013-05-06 23:22:00,
2013-05-06 17:31:00,52.0,32.0,-100.00,NNE,23,11.0,17.0,46,0.00,,,-99.99,,2013-05-06 23:31:00,
2013-05-06 17:41:00,52.0,31.0,-100.00,NNE,23,9.0,14.0,44,0.00,,,-99.99,,2013-05-06 23:41:00,
2013-05-06 17:52:00,53.0,28.0,-100.00,NNE,28,11.0,19.0,38,0.00,,,-99.99,,2013-05-06 23:52:00,
2013-05-06 18:01:00,53.0,28.0,-100.00,NE,44,11.0,19.0,37,0.00,,,-99.99,,2013-05-07 00:01:00,
2013-05-06 18:11:00,53.0,28.0,-100.00,NE,42,11.0,18.0,38,0.00,,,-99.99,,2013-05-07 00:11:00,
2013-05-06 18:21:00,53.0,27.0,-100.00,NE,48,14.0,19.0,35,0.00,,,-99.99,,2013-05-07 00:21:00,
2013-05-06 18:31:00,53.0,26.0,-100.00,ENE,64,14.0,19.0,35,0.00,,,-99.99,,2013-05-07 00:31:00,
2013-05-06 18:41:00,53.0,26.0,-100.00,ENE,62,11.0,15.0,34,0.00,,,-99.99,,2013-05-07 00:41:00,
2013-05-06 18:51:00,53.0,26.0,-100.00,NE,51,9.0,14.0,34,0.00,,,-99.99,,2013-05-07 00:51:00,
2013-05-06 19:01:00,53.0,27.0,-100.00,NE,49,10.0,16.0,36,0.00,,,-99.99,,2013-05-07 01:01:00,
2013-05-06 19:11:00,53.0,28.0,-100.00,NE,49,12.0,17.0,37,0.00,,,-99.99,,2013-05-07 01:11:00,
2013-05-06 19:21:00,52.0,29.0,-100.00,NE,49,13.0,18.0,40,0.00,,,-99.99,,2013-05-07 01:21:00,
2013-05-06 19:42:00,51.0,29.0,-100.00,NE,42,9.0,13.0,43,0.00,,,-99.99,,2013-05-07 01:42:00,
2013-05-06 19:52:00,50.0,30.0,-100.00,NE,35,6.0,12.0,45,0.00,,,-99.99,,2013-05-07 01:52:00,
2013-05-06 20:02:00,50.0,30.0,-100.00,NNE,30,4.0,6.0,47,0.00,,,-99.99,,2013-05-07 02:02:00,
2013-05-06 20:11:00,49.0,30.0,-100.00,NNE,30,4.0,6.0,47,0.00,,,-99.99,,2013-05-07 02:11:00,
2013-05-06 20:21:00,48.0,30.0,-100.00,NE,37,3.0,6.0,50,0.00,,,-99.99,,2013-05-07 02:21:00,
2013-05-06 20:31:00,47.0,31.0,-100.00,NE,49,6.0,9.0,52,0.00,,,-99.99,,2013-05-07 02:31:00,
2013-05-06 20:41:00,46.0,30.0,-100.00,NE,42,6.0,9.0,53,0.00,,,-99.99,,2013-05-07 02:41:00,
2013-05-06 20:51:00,47.0,28.0,-100.00,NE,48,6.0,12.0,47,0.00,,,-99.99,,2013-05-07 02:51:00,
2013-05-06 21:01:00,48.0,27.0,-100.00,ENE,66,9.0,14.0,43,0.00,,,-99.99,,2013-05-07 03:01:00,
2013-05-06 21:11:00,48.0,27.0,-100.00,ENE,78,9.0,14.0,44,0.00,,,-99.99,,2013-05-07 03:11:00,
2013-05-06 21:21:00,48.0,26.0,-100.00,East,80,11.0,14.0,43,0.00,,,-99.99,,2013-05-07 03:21:00,
2013-05-06 21:32:00,47.0,27.0,-100.00,ENE,76,12.0,18.0,44,0.00,,,-99.99,,2013-05-07 03:32:00,
2013-05-06 21:42:00,47.0,27.0,-100.00,ENE,75,11.0,15.0,45,0.00,,,-99.99,,2013-05-07 03:42:00,
2013-05-06 21:53:00,47.0,27.0,-100.00,ENE,64,10.0,14.0,46,0.00,,,-99.99,,2013-05-07 03:53:00,
2013-05-06 22:02:00,46.0,27.0,-100.00,ENE,62,11.0,15.0,48,0.00,,,-99.99,,2013-05-07 04:02:00,
2013-05-06 22:12:00,46.0,27.0,-100.00,NE,56,11.0,15.0,48,0.00,,,-99.99,,2013-05-07 04:12:00,
2013-05-06 22:23:00,46.0,26.0,-100.00,ENE,62,7.0,11.0,46,0.00,,,-99.99,,2013-05-07 04:23:00,
2013-05-06 22:33:00,46.0,27.0,-100.00,ENE,61,6.0,9.0,48,0.00,,,-99.99,,2013-05-07 04:33:00,
2013-05-06 22:42:00,47.0,27.0,-100.00,ENE,72,4.0,9.0,47,0.00,,,-99.99,,2013-05-07 04:42:00,
2013-05-06 22:52:00,44.0,28.0,-100.00,WSW,244,4.0,9.0,54,0.00,,,-99.99,,2013-05-07 04:52:00,
2013-05-06 23:02:00,44.0,28.0,-100.00,NW,319,7.0,14.0,53,0.00,,,-99.99,,2013-05-07 05:02:00,
2013-05-06 23:12:00,44.0,27.0,-100.00,NNW,335,6.0,14.0,52,0.00,,,-99.99,,2013-05-07 05:12:00,
2013-05-06 23:22:00,44.0,27.0,-100.00,North,350,0.0,2.0,51,0.00,,,-99.99,,2013-05-07 05:22:00,
2013-05-06 23:32:00,44.0,27.0,-100.00,NE,37,1.0,2.0,51,0.00,,,-99.99,,2013-05-07 05:32:00,
2013-05-06 23:42:00,45.0,27.0,-100.00,NNW,329,1.0,3.0,51,0.00,,,-99.99,,2013-05-07 05:42:00,
2013-05-06 23:51:00,44.0,27.0,-100.00,North,350,1.0,2.0,51,0.00,,,-99.99,,2013-05-07 05:51:00,